Terminal Aerodrome Forecast
Issued by NWS

Home | Current Version | Previous Version | Text Only | Print | Product List | Glossary Off
Versions: 1 2 3 4 5 6 7 8 9 10 11 12 13 14 15 16

000
FTUS41 KCLE 271200 AAA
TAFFDY
TAF AMD
KFDY 271248Z 2713/2812 33015KT P6SM BKN045
      TEMPO 2715/2719 BKN030 OVC045
     FM271900 34010G20KT P6SM BKN035
     FM280000 36009KT P6SM BKN050
     FM280200 01008KT P6SM SKC=

USA.gov is the U.S. government's official web portal to all federal, state and local government web resources and services.